Arnold AFB, Tennessee
Current Conditions -  °F | °C
As of 4:15 AM on Friday 21 Nov 2014 (Local Time) from KTHA Reporting Station
Overcast Overcast  
Wind Chill: -1°   Ceiling: 4700
Heat Index:   Visibility: 10mi
Dew Point: -6°   Wind: 6mph
Humidity: 56%   Direction: 50°NE
Pressure: 30.35"   Gusts: NA
Location:  35.36°N, 86.21°W
Report Text: KTHA 211015Z AUTO 05005KT 10SM OVC047 02/M06 A3035 RMK
Loading
Personal Weather Stations






























Interactive Weather Map New forecast layout! Learn more

10-Day Weather Forecast

Advertisements
Track Severe Weather on mobile